sensor_id;sensor_type;location;lat;lon;timestamp;temperature;humidity
18426;DHT22;9340;48.756;9.226;2023-02-05T00:00:47;3.70;99.90
18426;DHT22;9340;48.756;9.226;2023-02-05T00:03:13;3.70;99.90
18426;DHT22;9340;48.756;9.226;2023-02-05T00:05:40;3.70;99.90
18426;DHT22;9340;48.756;9.226;2023-02-05T00:08:07;3.70;99.90
18426;DHT22;9340;48.756;9.226;2023-02-05T00:10:34;3.70;99.90
18426;DHT22;9340;48.756;9.226;2023-02-05T00:13:01;3.60;99.90
18426;DHT22;9340;48.756;9.226;2023-02-05T00:15:28;3.60;99.90
18426;DHT22;9340;48.756;9.226;2023-02-05T00:17:56;3.60;99.90
18426;DHT22;9340;48.756;9.226;2023-02-05T00:20:23;3.70;99.90
18426;DHT22;9340;48.756;9.226;2023-02-05T00:22:49;3.80;99.90
18426;DHT22;9340;48.756;9.226;2023-02-05T00:25:16;3.80;99.90
18426;DHT22;9340;48.756;9.226;2023-02-05T00:27:43;3.80;99.90
18426;DHT22;9340;48.756;9.226;2023-02-05T00:30:11;3.70;99.90
18426;DHT22;9340;48.756;9.226;2023-02-05T00:32:38;3.70;99.90
18426;DHT22;9340;48.756;9.226;2023-02-05T00:35:06;3.60;99.90
18426;DHT22;9340;48.756;9.226;2023-02-05T00:37:33;3.70;99.90
18426;DHT22;9340;48.756;9.226;2023-02-05T00:40:00;3.70;99.90
18426;DHT22;9340;48.756;9.226;2023-02-05T00:42:27;3.70;99.90
18426;DHT22;9340;48.756;9.226;2023-02-05T00:44:55;3.60;99.90
18426;DHT22;9340;48.756;9.226;2023-02-05T00:47:21;3.70;99.90
18426;DHT22;9340;48.756;9.226;2023-02-05T00:49:48;3.70;99.90
18426;DHT22;9340;48.756;9.226;2023-02-05T00:52:16;3.80;99.90
18426;DHT22;9340;48.756;9.226;2023-02-05T00:54:43;3.80;99.90
18426;DHT22;9340;48.756;9.226;2023-02-05T00:57:10;3.80;99.90
18426;DHT22;9340;48.756;9.226;2023-02-05T00:59:37;3.80;99.90
18426;DHT22;9340;48.756;9.226;2023-02-05T01:02:03;3.80;99.90
18426;DHT22;9340;48.756;9.226;2023-02-05T01:04:30;3.80;99.90
18426;DHT22;9340;48.756;9.226;2023-02-05T01:06:57;3.70;99.90
18426;DHT22;9340;48.756;9.226;2023-02-05T01:09:25;3.80;99.90
18426;DHT22;9340;48.756;9.226;2023-02-05T01:11:52;3.90;99.90
18426;DHT22;9340;48.756;9.226;2023-02-05T01:14:18;3.80;99.90
18426;DHT22;9340;48.756;9.226;2023-02-05T01:16:45;3.80;99.90
18426;DHT22;9340;48.756;9.226;2023-02-05T01:19:12;3.70;99.90
18426;DHT22;9340;48.756;9.226;2023-02-05T01:21:39;3.80;99.90
18426;DHT22;9340;48.756;9.226;2023-02-05T01:24:06;3.80;99.90
18426;DHT22;9340;48.756;9.226;2023-02-05T01:26:34;3.80;99.90
18426;DHT22;9340;48.756;9.226;2023-02-05T01:29:00;3.80;99.90
18426;DHT22;9340;48.756;9.226;2023-02-05T01:31:27;3.70;99.90
18426;DHT22;9340;48.756;9.226;2023-02-05T01:33:55;3.70;99.90
18426;DHT22;9340;48.756;9.226;2023-02-05T01:36:21;3.70;99.90
18426;DHT22;9340;48.756;9.226;2023-02-05T01:38:48;3.70;99.90
18426;DHT22;9340;48.756;9.226;2023-02-05T01:41:17;3.70;99.90
18426;DHT22;9340;48.756;9.226;2023-02-05T01:44:08;3.70;99.90
18426;DHT22;9340;48.756;9.226;2023-02-05T01:46:36;3.80;99.90
18426;DHT22;9340;48.756;9.226;2023-02-05T01:49:05;3.80;99.90
18426;DHT22;9340;48.756;9.226;2023-02-05T01:51:35;3.80;99.90
18426;DHT22;9340;48.756;9.226;2023-02-05T01:54:03;3.60;99.90
18426;DHT22;9340;48.756;9.226;2023-02-05T01:56:33;3.50;99.90
18426;DHT22;9340;48.756;9.226;2023-02-05T01:59:05;3.60;99.90
18426;DHT22;9340;48.756;9.226;2023-02-05T02:01:35;3.50;99.90
18426;DHT22;9340;48.756;9.226;2023-02-05T02:04:03;3.50;99.90
18426;DHT22;9340;48.756;9.226;2023-02-05T02:06:31;3.40;99.90
18426;DHT22;9340;48.756;9.226;2023-02-05T02:08:59;3.50;99.90
18426;DHT22;9340;48.756;9.226;2023-02-05T02:11:27;3.50;99.90
18426;DHT22;9340;48.756;9.226;2023-02-05T02:13:56;3.50;99.90
18426;DHT22;9340;48.756;9.226;2023-02-05T02:16:24;3.60;99.90
18426;DHT22;9340;48.756;9.226;2023-02-05T02:18:54;3.60;99.90
18426;DHT22;9340;48.756;9.226;2023-02-05T02:21:34;3.60;99.90
18426;DHT22;9340;48.756;9.226;2023-02-05T02:24:31;3.50;99.90
18426;DHT22;9340;48.756;9.226;2023-02-05T02:27:09;3.50;99.90
18426;DHT22;9340;48.756;9.226;2023-02-05T02:29:46;3.40;99.90
18426;DHT22;9340;48.756;9.226;2023-02-05T02:32:17;3.40;99.90
18426;DHT22;9340;48.756;9.226;2023-02-05T02:34:48;3.40;99.90
18426;DHT22;9340;48.756;9.226;2023-02-05T02:37:21;3.50;99.90
18426;DHT22;9340;48.756;9.226;2023-02-05T02:39:55;3.30;99.90
18426;DHT22;9340;48.756;9.226;2023-02-05T02:42:26;3.20;99.90
18426;DHT22;9340;48.756;9.226;2023-02-05T02:44:58;3.20;99.90
18426;DHT22;9340;48.756;9.226;2023-02-05T02:47:29;3.20;99.90
18426;DHT22;9340;48.756;9.226;2023-02-05T02:50:00;3.20;99.90
18426;DHT22;9340;48.756;9.226;2023-02-05T02:52:32;3.20;99.90
18426;DHT22;9340;48.756;9.226;2023-02-05T02:54:59;3.20;99.90
18426;DHT22;9340;48.756;9.226;2023-02-05T02:57:33;3.20;99.90
18426;DHT22;9340;48.756;9.226;2023-02-05T03:00:04;3.20;99.90
18426;DHT22;9340;48.756;9.226;2023-02-05T03:02:35;3.30;99.90
18426;DHT22;9340;48.756;9.226;2023-02-05T03:05:06;3.40;99.90
18426;DHT22;9340;48.756;9.226;2023-02-05T03:07:36;3.40;99.90
18426;DHT22;9340;48.756;9.226;2023-02-05T03:10:08;3.50;99.90
18426;DHT22;9340;48.756;9.226;2023-02-05T03:12:37;3.50;99.90
18426;DHT22;9340;48.756;9.226;2023-02-05T03:15:06;3.40;99.90
18426;DHT22;9340;48.756;9.226;2023-02-05T03:17:34;3.50;99.90
18426;DHT22;9340;48.756;9.226;2023-02-05T03:20:06;3.60;99.90
18426;DHT22;9340;48.756;9.226;2023-02-05T03:22:34;3.50;99.90
18426;DHT22;9340;48.756;9.226;2023-02-05T03:25:02;3.50;99.90
18426;DHT22;9340;48.756;9.226;2023-02-05T03:27:29;3.60;99.90
18426;DHT22;9340;48.756;9.226;2023-02-05T03:29:56;3.50;99.90
18426;DHT22;9340;48.756;9.226;2023-02-05T03:32:33;3.40;99.90
18426;DHT22;9340;48.756;9.226;2023-02-05T03:35:11;3.30;99.90
18426;DHT22;9340;48.756;9.226;2023-02-05T03:37:49;3.30;99.90
18426;DHT22;9340;48.756;9.226;2023-02-05T03:40:25;3.40;99.90
18426;DHT22;9340;48.756;9.226;2023-02-05T03:43:02;3.50;99.90
18426;DHT22;9340;48.756;9.226;2023-02-05T03:45:42;3.50;99.90
18426;DHT22;9340;48.756;9.226;2023-02-05T03:48:36;3.40;99.90
18426;DHT22;9340;48.756;9.226;2023-02-05T03:51:20;3.30;99.90
18426;DHT22;9340;48.756;9.226;2023-02-05T03:53:59;3.30;99.90
18426;DHT22;9340;48.756;9.226;2023-02-05T03:56:31;3.20;99.90
18426;DHT22;9340;48.756;9.226;2023-02-05T03:59:01;3.10;99.90
18426;DHT22;9340;48.756;9.226;2023-02-05T04:01:29;2.90;99.90
18426;DHT22;9340;48.756;9.226;2023-02-05T04:03:57;2.80;99.90
18426;DHT22;9340;48.756;9.226;2023-02-05T04:06:24;2.70;99.90
18426;DHT22;9340;48.756;9.226;2023-02-05T04:08:51;2.60;99.90
18426;DHT22;9340;48.756;9.226;2023-02-05T04:11:18;2.60;99.90
18426;DHT22;9340;48.756;9.226;2023-02-05T04:13:45;2.70;99.90
18426;DHT22;9340;48.756;9.226;2023-02-05T04:16:11;2.60;99.90
18426;DHT22;9340;48.756;9.226;2023-02-05T04:18:38;2.50;99.90
18426;DHT22;9340;48.756;9.226;2023-02-05T04:21:06;2.50;99.90
18426;DHT22;9340;48.756;9.226;2023-02-05T04:23:33;2.50;99.90
18426;DHT22;9340;48.756;9.226;2023-02-05T04:26:00;2.40;99.90
18426;DHT22;9340;48.756;9.226;2023-02-05T04:28:27;2.40;99.90
18426;DHT22;9340;48.756;9.226;2023-02-05T04:30:54;2.30;99.90
18426;DHT22;9340;48.756;9.226;2023-02-05T04:33:21;2.20;99.90
18426;DHT22;9340;48.756;9.226;2023-02-05T04:35:47;2.20;99.90
18426;DHT22;9340;48.756;9.226;2023-02-05T04:38:15;2.10;99.90
18426;DHT22;9340;48.756;9.226;2023-02-05T04:40:43;2.10;99.90
18426;DHT22;9340;48.756;9.226;2023-02-05T04:43:10;2.10;99.90
18426;DHT22;9340;48.756;9.226;2023-02-05T04:45:37;1.90;99.90
18426;DHT22;9340;48.756;9.226;2023-02-05T04:48:04;1.90;99.90
18426;DHT22;9340;48.756;9.226;2023-02-05T04:50:31;1.90;99.90
18426;DHT22;9340;48.756;9.226;2023-02-05T04:52:59;1.80;99.90
18426;DHT22;9340;48.756;9.226;2023-02-05T04:55:28;1.80;99.90
18426;DHT22;9340;48.756;9.226;2023-02-05T04:57:55;1.70;99.90
18426;DHT22;9340;48.756;9.226;2023-02-05T05:00:22;1.70;99.90
18426;DHT22;9340;48.756;9.226;2023-02-05T05:02:49;1.60;99.90
18426;DHT22;9340;48.756;9.226;2023-02-05T05:05:16;1.60;99.90
18426;DHT22;9340;48.756;9.226;2023-02-05T05:07:43;1.60;99.90
18426;DHT22;9340;48.756;9.226;2023-02-05T05:10:11;1.60;99.90
18426;DHT22;9340;48.756;9.226;2023-02-05T05:12:39;1.50;99.90
18426;DHT22;9340;48.756;9.226;2023-02-05T05:15:07;1.40;99.90
18426;DHT22;9340;48.756;9.226;2023-02-05T05:17:34;1.50;99.90
18426;DHT22;9340;48.756;9.226;2023-02-05T05:20:01;1.40;99.90
18426;DHT22;9340;48.756;9.226;2023-02-05T05:22:28;1.50;99.90
18426;DHT22;9340;48.756;9.226;2023-02-05T05:24:54;1.60;99.90
18426;DHT22;9340;48.756;9.226;2023-02-05T05:27:21;1.70;99.90
18426;DHT22;9340;48.756;9.226;2023-02-05T05:29:54;1.80;99.90
18426;DHT22;9340;48.756;9.226;2023-02-05T05:32:21;1.90;99.90
18426;DHT22;9340;48.756;9.226;2023-02-05T05:34:47;2.00;99.90
18426;DHT22;9340;48.756;9.226;2023-02-05T05:37:14;2.00;99.90
18426;DHT22;9340;48.756;9.226;2023-02-05T05:39:41;2.00;99.90
18426;DHT22;9340;48.756;9.226;2023-02-05T05:42:25;2.10;99.90
18426;DHT22;9340;48.756;9.226;2023-02-05T05:45:11;2.10;99.90
18426;DHT22;9340;48.756;9.226;2023-02-05T05:47:38;2.20;99.90
18426;DHT22;9340;48.756;9.226;2023-02-05T05:50:05;2.30;99.90
18426;DHT22;9340;48.756;9.226;2023-02-05T05:52:32;2.40;99.90
18426;DHT22;9340;48.756;9.226;2023-02-05T05:54:59;2.40;99.90
18426;DHT22;9340;48.756;9.226;2023-02-05T05:57:26;2.50;99.90
18426;DHT22;9340;48.756;9.226;2023-02-05T05:59:53;2.50;99.90
18426;DHT22;9340;48.756;9.226;2023-02-05T06:02:21;2.60;99.90
18426;DHT22;9340;48.756;9.226;2023-02-05T06:04:48;2.40;99.90
18426;DHT22;9340;48.756;9.226;2023-02-05T06:07:16;2.40;99.90
18426;DHT22;9340;48.756;9.226;2023-02-05T06:09:43;2.40;99.90
18426;DHT22;9340;48.756;9.226;2023-02-05T06:12:09;2.30;99.90
18426;DHT22;9340;48.756;9.226;2023-02-05T06:14:36;2.30;99.90
18426;DHT22;9340;48.756;9.226;2023-02-05T06:17:03;2.40;99.90
18426;DHT22;9340;48.756;9.226;2023-02-05T06:19:31;2.40;99.90
18426;DHT22;9340;48.756;9.226;2023-02-05T06:21:58;2.50;99.90
18426;DHT22;9340;48.756;9.226;2023-02-05T06:24:25;2.60;99.90
18426;DHT22;9340;48.756;9.226;2023-02-05T06:26:52;2.70;99.90
18426;DHT22;9340;48.756;9.226;2023-02-05T06:29:19;2.70;99.90
18426;DHT22;9340;48.756;9.226;2023-02-05T06:31:45;2.70;99.90
18426;DHT22;9340;48.756;9.226;2023-02-05T06:34:12;2.70;99.90
18426;DHT22;9340;48.756;9.226;2023-02-05T06:36:40;2.60;99.90
18426;DHT22;9340;48.756;9.226;2023-02-05T06:39:07;2.60;99.90
18426;DHT22;9340;48.756;9.226;2023-02-05T06:41:34;2.60;99.90
18426;DHT22;9340;48.756;9.226;2023-02-05T06:44:00;2.50;99.90
18426;DHT22;9340;48.756;9.226;2023-02-05T06:46:28;2.60;99.90
18426;DHT22;9340;48.756;9.226;2023-02-05T06:48:55;2.60;99.90
18426;DHT22;9340;48.756;9.226;2023-02-05T06:51:21;2.50;99.90
18426;DHT22;9340;48.756;9.226;2023-02-05T06:53:49;2.50;99.90
18426;DHT22;9340;48.756;9.226;2023-02-05T06:56:18;2.60;99.90
18426;DHT22;9340;48.756;9.226;2023-02-05T06:58:45;2.50;99.90
18426;DHT22;9340;48.756;9.226;2023-02-05T07:01:12;2.50;99.90
18426;DHT22;9340;48.756;9.226;2023-02-05T07:03:39;2.70;99.90
18426;DHT22;9340;48.756;9.226;2023-02-05T07:06:06;2.70;99.90
18426;DHT22;9340;48.756;9.226;2023-02-05T07:08:33;2.70;99.90
18426;DHT22;9340;48.756;9.226;2023-02-05T07:11:02;2.80;99.90
18426;DHT22;9340;48.756;9.226;2023-02-05T07:13:29;2.90;99.90
18426;DHT22;9340;48.756;9.226;2023-02-05T07:15:56;3.00;99.90
18426;DHT22;9340;48.756;9.226;2023-02-05T07:18:24;3.00;99.90
18426;DHT22;9340;48.756;9.226;2023-02-05T07:20:50;3.00;99.90
18426;DHT22;9340;48.756;9.226;2023-02-05T07:23:17;3.00;99.90
18426;DHT22;9340;48.756;9.226;2023-02-05T07:25:44;3.00;99.90
18426;DHT22;9340;48.756;9.226;2023-02-05T07:28:12;3.00;99.90
18426;DHT22;9340;48.756;9.226;2023-02-05T07:30:39;2.90;99.90
18426;DHT22;9340;48.756;9.226;2023-02-05T07:33:06;2.90;99.90
18426;DHT22;9340;48.756;9.226;2023-02-05T07:35:36;2.90;99.90
18426;DHT22;9340;48.756;9.226;2023-02-05T07:38:03;3.10;99.90
18426;DHT22;9340;48.756;9.226;2023-02-05T07:40:31;3.20;99.90
18426;DHT22;9340;48.756;9.226;2023-02-05T07:42:57;3.10;99.90
18426;DHT22;9340;48.756;9.226;2023-02-05T07:45:26;3.10;99.90
18426;DHT22;9340;48.756;9.226;2023-02-05T07:47:52;3.10;99.90
18426;DHT22;9340;48.756;9.226;2023-02-05T07:50:19;3.20;99.90
18426;DHT22;9340;48.756;9.226;2023-02-05T07:52:46;3.30;99.90
18426;DHT22;9340;48.756;9.226;2023-02-05T07:55:13;3.30;99.90
18426;DHT22;9340;48.756;9.226;2023-02-05T07:57:40;3.30;99.90
18426;DHT22;9340;48.756;9.226;2023-02-05T08:00:08;3.40;99.90
18426;DHT22;9340;48.756;9.226;2023-02-05T08:02:36;3.50;99.90
18426;DHT22;9340;48.756;9.226;2023-02-05T08:05:03;3.50;99.90
18426;DHT22;9340;48.756;9.226;2023-02-05T08:07:30;3.40;99.90
18426;DHT22;9340;48.756;9.226;2023-02-05T08:09:57;3.50;99.90
18426;DHT22;9340;48.756;9.226;2023-02-05T08:12:25;3.50;99.90
18426;DHT22;9340;48.756;9.226;2023-02-05T08:14:52;3.60;99.90
18426;DHT22;9340;48.756;9.226;2023-02-05T08:17:19;3.60;99.90
18426;DHT22;9340;48.756;9.226;2023-02-05T08:19:48;3.60;99.90
18426;DHT22;9340;48.756;9.226;2023-02-05T08:22:15;3.70;99.90
18426;DHT22;9340;48.756;9.226;2023-02-05T08:24:42;3.90;99.90
18426;DHT22;9340;48.756;9.226;2023-02-05T08:27:09;4.00;99.90
18426;DHT22;9340;48.756;9.226;2023-02-05T08:29:36;4.10;99.90
18426;DHT22;9340;48.756;9.226;2023-02-05T08:32:03;4.20;99.90
18426;DHT22;9340;48.756;9.226;2023-02-05T08:34:30;4.10;99.90
18426;DHT22;9340;48.756;9.226;2023-02-05T08:36:58;4.10;99.90
18426;DHT22;9340;48.756;9.226;2023-02-05T08:39:25;4.20;99.90
18426;DHT22;9340;48.756;9.226;2023-02-05T08:41:52;4.00;99.90
18426;DHT22;9340;48.756;9.226;2023-02-05T08:44:19;4.00;99.90
18426;DHT22;9340;48.756;9.226;2023-02-05T08:46:45;4.10;99.90
18426;DHT22;9340;48.756;9.226;2023-02-05T08:49:12;4.20;99.90
18426;DHT22;9340;48.756;9.226;2023-02-05T08:51:41;4.30;99.90
18426;DHT22;9340;48.756;9.226;2023-02-05T08:54:11;4.40;99.90
18426;DHT22;9340;48.756;9.226;2023-02-05T08:56:40;4.30;99.90
18426;DHT22;9340;48.756;9.226;2023-02-05T08:59:08;4.40;99.90
18426;DHT22;9340;48.756;9.226;2023-02-05T09:01:36;4.60;99.90
18426;DHT22;9340;48.756;9.226;2023-02-05T09:04:05;4.60;99.90
18426;DHT22;9340;48.756;9.226;2023-02-05T09:06:32;4.80;99.90
18426;DHT22;9340;48.756;9.226;2023-02-05T09:08:59;4.70;99.90
18426;DHT22;9340;48.756;9.226;2023-02-05T09:11:28;4.70;99.90
18426;DHT22;9340;48.756;9.226;2023-02-05T09:13:55;4.50;99.90
18426;DHT22;9340;48.756;9.226;2023-02-05T09:16:22;4.50;99.90
18426;DHT22;9340;48.756;9.226;2023-02-05T09:18:49;4.60;99.90
18426;DHT22;9340;48.756;9.226;2023-02-05T09:21:16;4.70;99.90
18426;DHT22;9340;48.756;9.226;2023-02-05T09:23:43;4.90;99.90
18426;DHT22;9340;48.756;9.226;2023-02-05T09:26:10;5.10;99.90
18426;DHT22;9340;48.756;9.226;2023-02-05T09:28:38;5.20;99.90
18426;DHT22;9340;48.756;9.226;2023-02-05T09:31:07;5.30;99.90
18426;DHT22;9340;48.756;9.226;2023-02-05T09:33:35;5.30;99.90
18426;DHT22;9340;48.756;9.226;2023-02-05T09:36:06;5.20;99.90
18426;DHT22;9340;48.756;9.226;2023-02-05T09:38:33;5.30;99.90
18426;DHT22;9340;48.756;9.226;2023-02-05T09:41:04;5.20;99.90
18426;DHT22;9340;48.756;9.226;2023-02-05T09:43:44;5.10;99.90
18426;DHT22;9340;48.756;9.226;2023-02-05T09:46:18;4.90;99.90
18426;DHT22;9340;48.756;9.226;2023-02-05T09:48:48;4.60;99.90
18426;DHT22;9340;48.756;9.226;2023-02-05T09:51:22;4.30;99.90
18426;DHT22;9340;48.756;9.226;2023-02-05T09:53:55;4.20;99.90
18426;DHT22;9340;48.756;9.226;2023-02-05T09:56:24;4.20;99.90
18426;DHT22;9340;48.756;9.226;2023-02-05T09:58:55;4.20;99.90
18426;DHT22;9340;48.756;9.226;2023-02-05T10:01:28;4.20;99.90
18426;DHT22;9340;48.756;9.226;2023-02-05T10:04:02;4.40;99.90
18426;DHT22;9340;48.756;9.226;2023-02-05T10:06:58;4.20;99.90
18426;DHT22;9340;48.756;9.226;2023-02-05T10:09:42;4.20;99.90
18426;DHT22;9340;48.756;9.226;2023-02-05T10:12:18;4.30;99.90
18426;DHT22;9340;48.756;9.226;2023-02-05T10:15:00;4.40;99.90
18426;DHT22;9340;48.756;9.226;2023-02-05T10:17:41;4.40;99.90
18426;DHT22;9340;48.756;9.226;2023-02-05T10:20:23;4.40;99.90
18426;DHT22;9340;48.756;9.226;2023-02-05T10:23:01;4.50;99.90
18426;DHT22;9340;48.756;9.226;2023-02-05T10:25:58;4.30;99.90
18426;DHT22;9340;48.756;9.226;2023-02-05T10:28:50;4.10;99.90
18426;DHT22;9340;48.756;9.226;2023-02-05T10:31:32;4.00;99.90
18426;DHT22;9340;48.756;9.226;2023-02-05T10:34:06;4.00;99.90
18426;DHT22;9340;48.756;9.226;2023-02-05T10:36:48;3.90;99.90
18426;DHT22;9340;48.756;9.226;2023-02-05T10:39:17;3.90;99.90
18426;DHT22;9340;48.756;9.226;2023-02-05T10:41:47;4.10;99.90
18426;DHT22;9340;48.756;9.226;2023-02-05T10:44:22;4.20;99.90
18426;DHT22;9340;48.756;9.226;2023-02-05T10:46:55;4.40;99.90
18426;DHT22;9340;48.756;9.226;2023-02-05T10:49:24;4.50;99.90
18426;DHT22;9340;48.756;9.226;2023-02-05T10:51:53;4.40;99.90
18426;DHT22;9340;48.756;9.226;2023-02-05T10:54:27;4.10;99.90
18426;DHT22;9340;48.756;9.226;2023-02-05T10:56:55;4.10;99.90
18426;DHT22;9340;48.756;9.226;2023-02-05T10:59:25;4.10;99.90
18426;DHT22;9340;48.756;9.226;2023-02-05T11:01:55;4.30;99.90
18426;DHT22;9340;48.756;9.226;2023-02-05T11:04:30;4.50;99.90
18426;DHT22;9340;48.756;9.226;2023-02-05T11:07:00;4.80;99.90
18426;DHT22;9340;48.756;9.226;2023-02-05T11:09:33;4.90;99.90
18426;DHT22;9340;48.756;9.226;2023-02-05T11:12:02;4.80;99.90
18426;DHT22;9340;48.756;9.226;2023-02-05T11:14:32;4.60;99.90
18426;DHT22;9340;48.756;9.226;2023-02-05T11:17:06;4.60;99.90
18426;DHT22;9340;48.756;9.226;2023-02-05T11:19:34;4.70;99.90
18426;DHT22;9340;48.756;9.226;2023-02-05T11:22:03;4.80;99.90
18426;DHT22;9340;48.756;9.226;2023-02-05T11:24:31;4.90;99.90
18426;DHT22;9340;48.756;9.226;2023-02-05T11:27:26;5.00;99.90
18426;DHT22;9340;48.756;9.226;2023-02-05T11:29:54;5.20;99.90
18426;DHT22;9340;48.756;9.226;2023-02-05T11:32:31;5.30;99.90
18426;DHT22;9340;48.756;9.226;2023-02-05T11:35:11;5.40;99.90
18426;DHT22;9340;48.756;9.226;2023-02-05T11:37:42;5.50;99.90
18426;DHT22;9340;48.756;9.226;2023-02-05T11:40:20;5.50;99.90
18426;DHT22;9340;48.756;9.226;2023-02-05T11:42:57;5.30;99.90
18426;DHT22;9340;48.756;9.226;2023-02-05T11:45:25;5.10;99.90
18426;DHT22;9340;48.756;9.226;2023-02-05T11:47:54;5.30;99.90
18426;DHT22;9340;48.756;9.226;2023-02-05T11:50:23;5.50;99.90
18426;DHT22;9340;48.756;9.226;2023-02-05T11:52:51;5.60;99.90
18426;DHT22;9340;48.756;9.226;2023-02-05T11:55:26;5.70;99.90
18426;DHT22;9340;48.756;9.226;2023-02-05T11:57:58;5.70;99.90
18426;DHT22;9340;48.756;9.226;2023-02-05T12:00:26;5.60;99.90
18426;DHT22;9340;48.756;9.226;2023-02-05T12:03:16;5.70;99.90
18426;DHT22;9340;48.756;9.226;2023-02-05T12:05:48;5.80;99.90
18426;DHT22;9340;48.756;9.226;2023-02-05T12:08:24;5.90;99.90
18426;DHT22;9340;48.756;9.226;2023-02-05T12:10:58;5.90;99.90
18426;DHT22;9340;48.756;9.226;2023-02-05T12:13:41;5.80;99.90
18426;DHT22;9340;48.756;9.226;2023-02-05T12:16:15;5.80;99.90
18426;DHT22;9340;48.756;9.226;2023-02-05T12:18:51;5.90;99.90
18426;DHT22;9340;48.756;9.226;2023-02-05T12:21:26;5.80;99.90
18426;DHT22;9340;48.756;9.226;2023-02-05T12:24:24;5.80;99.90
18426;DHT22;9340;48.756;9.226;2023-02-05T12:27:03;5.80;99.90
18426;DHT22;9340;48.756;9.226;2023-02-05T12:29:46;5.90;99.90
18426;DHT22;9340;48.756;9.226;2023-02-05T12:32:19;5.90;99.90
18426;DHT22;9340;48.756;9.226;2023-02-05T12:35:07;5.90;99.90
18426;DHT22;9340;48.756;9.226;2023-02-05T12:37:45;5.90;99.90
18426;DHT22;9340;48.756;9.226;2023-02-05T12:40:33;5.90;99.90
18426;DHT22;9340;48.756;9.226;2023-02-05T12:43:07;5.80;99.90
18426;DHT22;9340;48.756;9.226;2023-02-05T12:45:43;5.80;99.90
18426;DHT22;9340;48.756;9.226;2023-02-05T12:48:35;5.80;99.90
18426;DHT22;9340;48.756;9.226;2023-02-05T12:51:20;5.70;99.90
18426;DHT22;9340;48.756;9.226;2023-02-05T12:54:06;5.70;99.90
18426;DHT22;9340;48.756;9.226;2023-02-05T12:56:51;5.70;99.90
18426;DHT22;9340;48.756;9.226;2023-02-05T12:59:27;5.60;99.90
18426;DHT22;9340;48.756;9.226;2023-02-05T13:02:00;5.60;99.90
18426;DHT22;9340;48.756;9.226;2023-02-05T13:04:32;5.60;99.90
18426;DHT22;9340;48.756;9.226;2023-02-05T13:07:07;5.60;99.90
18426;DHT22;9340;48.756;9.226;2023-02-05T13:09:42;5.70;99.90
18426;DHT22;9340;48.756;9.226;2023-02-05T13:12:12;5.60;99.90
18426;DHT22;9340;48.756;9.226;2023-02-05T13:14:43;5.60;99.90
18426;DHT22;9340;48.756;9.226;2023-02-05T13:17:14;5.60;99.90
18426;DHT22;9340;48.756;9.226;2023-02-05T13:19:45;5.60;99.90
18426;DHT22;9340;48.756;9.226;2023-02-05T13:22:18;5.60;99.90
18426;DHT22;9340;48.756;9.226;2023-02-05T13:25:14;5.60;99.90
18426;DHT22;9340;48.756;9.226;2023-02-05T13:28:03;5.60;99.90
18426;DHT22;9340;48.756;9.226;2023-02-05T13:30:54;5.60;99.90
18426;DHT22;9340;48.756;9.226;2023-02-05T13:33:22;5.40;99.90
18426;DHT22;9340;48.756;9.226;2023-02-05T13:36:00;5.40;99.90
18426;DHT22;9340;48.756;9.226;2023-02-05T13:38:48;5.50;99.90
18426;DHT22;9340;48.756;9.226;2023-02-05T13:41:29;5.40;99.90
18426;DHT22;9340;48.756;9.226;2023-02-05T13:44:14;5.40;99.90
18426;DHT22;9340;48.756;9.226;2023-02-05T13:47:14;5.40;99.90
18426;DHT22;9340;48.756;9.226;2023-02-05T13:53:17;5.50;99.90
18426;DHT22;9340;48.756;9.226;2023-02-05T13:56:16;5.50;99.90
18426;DHT22;9340;48.756;9.226;2023-02-05T13:58:48;5.40;99.90
18426;DHT22;9340;48.756;9.226;2023-02-05T14:01:21;5.40;99.90
18426;DHT22;9340;48.756;9.226;2023-02-05T14:03:56;5.50;99.90
18426;DHT22;9340;48.756;9.226;2023-02-05T14:06:28;5.40;99.90
18426;DHT22;9340;48.756;9.226;2023-02-05T14:09:04;5.30;99.90
18426;DHT22;9340;48.756;9.226;2023-02-05T14:11:52;5.30;99.90
18426;DHT22;9340;48.756;9.226;2023-02-05T14:14:24;5.30;99.90
18426;DHT22;9340;48.756;9.226;2023-02-05T14:16:51;5.40;99.90
18426;DHT22;9340;48.756;9.226;2023-02-05T14:19:22;5.40;99.90
18426;DHT22;9340;48.756;9.226;2023-02-05T14:22:11;5.30;99.90
18426;DHT22;9340;48.756;9.226;2023-02-05T14:24:57;5.30;99.90
18426;DHT22;9340;48.756;9.226;2023-02-05T14:27:45;5.30;99.90
18426;DHT22;9340;48.756;9.226;2023-02-05T14:30:50;5.40;99.90
18426;DHT22;9340;48.756;9.226;2023-02-05T14:33:41;5.30;99.90
18426;DHT22;9340;48.756;9.226;2023-02-05T14:36:30;5.30;99.90
18426;DHT22;9340;48.756;9.226;2023-02-05T14:39:01;5.30;99.90
18426;DHT22;9340;48.756;9.226;2023-02-05T14:41:30;5.20;99.90
18426;DHT22;9340;48.756;9.226;2023-02-05T14:44:04;5.20;99.90
18426;DHT22;9340;48.756;9.226;2023-02-05T14:46:36;5.00;99.90
18426;DHT22;9340;48.756;9.226;2023-02-05T14:49:07;5.00;99.90
18426;DHT22;9340;48.756;9.226;2023-02-05T14:51:48;5.00;99.90
18426;DHT22;9340;48.756;9.226;2023-02-05T14:54:21;4.90;99.90
18426;DHT22;9340;48.756;9.226;2023-02-05T14:56:50;4.90;99.90
18426;DHT22;9340;48.756;9.226;2023-02-05T14:59:23;4.90;99.90
18426;DHT22;9340;48.756;9.226;2023-02-05T15:01:54;4.80;99.90
18426;DHT22;9340;48.756;9.226;2023-02-05T15:04:26;4.90;99.90
18426;DHT22;9340;48.756;9.226;2023-02-05T15:06:56;4.80;99.90
18426;DHT22;9340;48.756;9.226;2023-02-05T15:09:37;5.00;99.90
18426;DHT22;9340;48.756;9.226;2023-02-05T15:12:29;5.10;99.90
18426;DHT22;9340;48.756;9.226;2023-02-05T15:15:22;5.10;99.90
18426;DHT22;9340;48.756;9.226;2023-02-05T15:17:52;5.10;99.90
18426;DHT22;9340;48.756;9.226;2023-02-05T15:20:27;5.10;99.90
18426;DHT22;9340;48.756;9.226;2023-02-05T15:23:04;5.10;99.90
18426;DHT22;9340;48.756;9.226;2023-02-05T15:25:40;5.10;99.90
18426;DHT22;9340;48.756;9.226;2023-02-05T15:28:15;5.10;99.90
18426;DHT22;9340;48.756;9.226;2023-02-05T15:30:52;5.10;99.90
18426;DHT22;9340;48.756;9.226;2023-02-05T15:33:37;5.10;99.90
18426;DHT22;9340;48.756;9.226;2023-02-05T15:36:12;5.20;99.90
18426;DHT22;9340;48.756;9.226;2023-02-05T15:38:47;5.10;99.90
18426;DHT22;9340;48.756;9.226;2023-02-05T15:41:15;5.10;99.90
18426;DHT22;9340;48.756;9.226;2023-02-05T15:43:56;5.10;99.90
18426;DHT22;9340;48.756;9.226;2023-02-05T15:46:26;5.00;99.90
18426;DHT22;9340;48.756;9.226;2023-02-05T15:48:54;4.90;99.90
18426;DHT22;9340;48.756;9.226;2023-02-05T15:51:26;4.80;99.90
18426;DHT22;9340;48.756;9.226;2023-02-05T15:53:55;5.00;99.90
18426;DHT22;9340;48.756;9.226;2023-02-05T15:56:25;5.00;99.90
18426;DHT22;9340;48.756;9.226;2023-02-05T15:58:57;4.90;99.90
18426;DHT22;9340;48.756;9.226;2023-02-05T16:01:28;4.70;99.90
18426;DHT22;9340;48.756;9.226;2023-02-05T16:03:55;4.70;99.90
18426;DHT22;9340;48.756;9.226;2023-02-05T16:06:24;4.70;99.90
18426;DHT22;9340;48.756;9.226;2023-02-05T16:08:52;4.70;99.90
18426;DHT22;9340;48.756;9.226;2023-02-05T16:11:27;4.60;99.90
18426;DHT22;9340;48.756;9.226;2023-02-05T16:14:05;4.50;99.90
18426;DHT22;9340;48.756;9.226;2023-02-05T16:16:36;4.60;99.90
18426;DHT22;9340;48.756;9.226;2023-02-05T16:19:06;4.50;99.90
18426;DHT22;9340;48.756;9.226;2023-02-05T16:21:37;4.40;99.90
18426;DHT22;9340;48.756;9.226;2023-02-05T16:24:12;4.40;99.90
18426;DHT22;9340;48.756;9.226;2023-02-05T16:26:44;4.40;99.90
18426;DHT22;9340;48.756;9.226;2023-02-05T16:29:17;4.40;99.90
18426;DHT22;9340;48.756;9.226;2023-02-05T16:31:46;4.50;99.90
18426;DHT22;9340;48.756;9.226;2023-02-05T16:34:15;4.50;99.90